Time;durP1;ratioP1;P1;durP2;ratioP2;P2;SDS_P1;SDS_P2;PMS_P1;PMS_P2;Temp;Humidity;BMP_temperature;BMP_pressure;BME280_temperature;BME280_humidity;BME280_pressure;Samples;Min_cycle;Max_cycle;Signal;HPM_P1;HPM_P2
2022/12/27 05:03:51;;;;;;;2.63;2.20;;;4.40;99.90;;;;;;4948082;29;20421;-73
2022/12/27 05:06:18;;;;;;;4.17;1.87;;;4.40;99.90;;;;;;4947652;29;20763;-73
2022/12/27 05:14:15;;;;;;;3.23;2.00;;;4.30;99.90;;;;;;4947855;29;20852;-73
2022/12/27 05:16:44;;;;;;;5.40;1.90;;;4.30;99.90;;;;;;4947393;29;20465;-73
2022/12/27 05:19:13;;;;;;;1.90;1.80;;;4.30;99.90;;;;;;4948215;29;20457;-73
2022/12/27 05:25:33;;;;;;;5.00;1.67;;;4.30;99.90;;;;;;4948014;29;20512;-73
2022/12/27 05:27:13;;;;;;;4.10;2.10;;;4.30;99.90;;;;;;4947162;29;20504;-73
2022/12/27 05:29:40;;;;;;;2.83;2.17;;;4.30;99.90;;;;;;4947968;29;20464;-73
2022/12/27 05:32:08;;;;;;;4.17;2.70;;;4.30;99.90;;;;;;4946299;28;20482;-73
2022/12/27 05:34:35;;;;;;;2.00;1.90;;;4.20;99.90;;;;;;4947178;29;20557;-73
2022/12/27 05:37:02;;;;;;;4.40;3.00;;;4.20;99.90;;;;;;4946445;29;20468;-73
2022/12/27 05:39:28;;;;;;;9.87;2.73;;;4.20;99.90;;;;;;4947716;29;20489;-73
2022/12/27 05:41:55;;;;;;;5.93;2.70;;;4.20;99.90;;;;;;4947942;29;20504;-74
2022/12/27 05:44:22;;;;;;;3.13;2.40;;;4.20;99.90;;;;;;4947761;29;20480;-73
2022/12/27 05:46:49;;;;;;;2.93;2.37;;;4.20;99.90;;;;;;4946742;29;20469;-73
2022/12/27 05:49:17;;;;;;;4.30;3.40;;;4.20;99.90;;;;;;4947653;29;20453;-73
2022/12/27 05:51:43;;;;;;;7.10;3.80;;;4.20;99.90;;;;;;4947551;29;20466;-73
2022/12/27 05:54:10;;;;;;;5.93;3.20;;;4.10;99.90;;;;;;4947708;29;20468;-73
2022/12/27 05:56:37;;;;;;;6.90;3.00;;;4.00;99.90;;;;;;4946623;29;20468;-73
2022/12/27 05:59:04;;;;;;;9.63;2.60;;;4.00;99.90;;;;;;4947463;29;20462;-73
2022/12/27 06:01:31;;;;;;;3.50;2.23;;;4.00;99.90;;;;;;4947126;29;21040;-73
2022/12/27 06:03:58;;;;;;;4.70;2.40;;;4.00;99.90;;;;;;4947166;29;20461;-73
2022/12/27 06:06:26;;;;;;;8.30;2.80;;;4.00;99.90;;;;;;4946781;29;20908;-74
2022/12/27 06:08:52;;;;;;;3.53;2.27;;;4.00;99.90;;;;;;4947696;29;20472;-74
2022/12/27 06:11:20;;;;;;;3.03;2.73;;;4.00;99.90;;;;;;4947386;29;20508;-74
2022/12/27 06:13:51;;;;;;;3.63;2.40;;;3.90;99.90;;;;;;4947573;29;20847;-74
2022/12/27 06:16:19;;;;;;;3.97;2.83;;;3.90;99.90;;;;;;4946833;29;20461;-74
2022/12/27 06:18:46;;;;;;;6.53;2.67;;;3.90;99.90;;;;;;4947184;29;20449;-74
2022/12/27 06:21:15;;;;;;;3.40;2.97;;;3.80;99.90;;;;;;4947456;29;20504;-61
2022/12/27 06:23:44;;;;;;;8.47;2.90;;;3.80;99.90;;;;;;4947156;29;20461;-64
2022/12/27 06:26:14;;;;;;;2.80;2.53;;;3.80;99.90;;;;;;4946253;29;20511;-62
2022/12/27 06:28:41;;;;;;;3.60;2.50;;;3.70;99.90;;;;;;4946972;29;20461;-61
2022/12/27 06:31:08;;;;;;;5.70;2.80;;;3.70;99.90;;;;;;4946857;29;21120;-61
2022/12/27 06:33:35;;;;;;;3.50;2.30;;;3.70;99.90;;;;;;4947222;29;20954;-62
2022/12/27 06:36:06;;;;;;;6.33;4.57;;;3.70;99.90;;;;;;4946860;29;20523;-62
2022/12/27 06:38:33;;;;;;;7.93;5.13;;;3.70;99.90;;;;;;4947304;29;20438;-73
2022/12/27 06:41:02;;;;;;;6.40;4.20;;;3.60;99.90;;;;;;4947061;29;20473;-73
2022/12/27 06:43:29;;;;;;;7.47;4.07;;;3.60;99.90;;;;;;4947295;28;20832;-72
2022/12/27 06:45:57;;;;;;;6.20;3.80;;;3.50;99.90;;;;;;4949767;29;20461;-72
2022/12/27 06:48:24;;;;;;;4.73;3.50;;;3.60;99.90;;;;;;4950871;29;20457;-72
2022/12/27 06:50:50;;;;;;;3.47;3.17;;;3.50;99.90;;;;;;4950833;29;21235;-72
2022/12/27 06:53:17;;;;;;;4.63;3.40;;;3.50;99.90;;;;;;4950829;29;20453;-72
2022/12/27 06:55:44;;;;;;;5.87;3.60;;;3.50;99.90;;;;;;4950852;29;20454;-72
2022/12/27 06:58:12;;;;;;;7.43;2.80;;;3.50;99.90;;;;;;4950034;29;20506;-72
2022/12/27 07:00:39;;;;;;;4.00;2.60;;;3.50;99.90;;;;;;4950815;28;20485;-72
2022/12/27 07:03:06;;;;;;;2.83;2.63;;;3.40;99.90;;;;;;4950410;29;21004;-72
2022/12/27 07:05:34;;;;;;;3.73;2.57;;;3.40;99.90;;;;;;4950703;29;20461;-72
2022/12/27 07:08:01;;;;;;;4.30;2.67;;;3.40;99.90;;;;;;4950180;29;20457;-72
2022/12/27 07:10:28;;;;;;;5.77;3.17;;;3.40;99.90;;;;;;4950492;29;20465;-72
2022/12/27 07:12:56;;;;;;;7.33;4.27;;;3.40;99.90;;;;;;4950043;29;20459;-72
2022/12/27 07:15:24;;;;;;;4.53;2.90;;;3.40;99.90;;;;;;4950660;29;20458;-72
2022/12/27 07:17:51;;;;;;;6.17;3.20;;;3.40;99.90;;;;;;4949992;29;20465;-72
2022/12/27 07:20:18;;;;;;;4.10;2.90;;;3.40;99.90;;;;;;4950070;29;20866;-72
2022/12/27 07:22:45;;;;;;;4.80;3.20;;;3.40;99.90;;;;;;4949922;29;21035;-73
2022/12/27 07:25:11;;;;;;;5.43;3.23;;;3.40;99.90;;;;;;4950354;29;21212;-72
2022/12/27 07:27:38;;;;;;;7.20;3.33;;;3.30;99.90;;;;;;4949215;29;20459;-72
2022/12/27 07:30:06;;;;;;;4.90;3.90;;;3.40;99.90;;;;;;4949766;29;20977;-72
2022/12/27 07:32:34;;;;;;;6.07;3.63;;;3.40;99.90;;;;;;4949848;29;20474;-72
2022/12/27 07:35:01;;;;;;;5.80;4.27;;;3.40;99.90;;;;;;4950222;29;20454;-72
2022/12/27 07:37:28;;;;;;;5.20;4.57;;;3.40;99.90;;;;;;4949000;29;21215;-73
2022/12/27 07:39:55;;;;;;;6.87;4.10;;;3.40;99.90;;;;;;4949485;29;20465;-73
2022/12/27 07:42:21;;;;;;;6.23;3.67;;;3.40;99.90;;;;;;4949969;29;20501;-72
2022/12/27 07:44:48;;;;;;;5.50;3.70;;;3.40;99.90;;;;;;4949984;29;20465;-72
2022/12/27 07:47:15;;;;;;;6.60;4.20;;;3.40;99.90;;;;;;4948903;29;20458;-72
2022/12/27 07:49:43;;;;;;;5.87;4.70;;;3.40;99.90;;;;;;4949644;29;20460;-72
2022/12/27 07:52:10;;;;;;;4.67;4.17;;;3.30;99.90;;;;;;4949368;29;20473;-72
2022/12/27 07:54:37;;;;;;;6.85;4.40;;;3.30;99.90;;;;;;4949312;28;20449;-72
2022/12/27 07:57:03;;;;;;;7.27;4.23;;;3.30;99.90;;;;;;4948598;29;20221;-72
2022/12/27 07:59:30;;;;;;;8.50;4.40;;;3.30;99.90;;;;;;4949479;29;20465;-72
2022/12/27 08:02:06;;;;;;;6.57;4.27;;;3.40;99.90;;;;;;4949183;29;21021;-72
2022/12/27 08:04:35;;;;;;;8.30;5.80;;;3.40;99.90;;;;;;4949039;29;20444;-72
2022/12/27 08:07:06;;;;;;;9.23;4.60;;;3.40;99.90;;;;;;4948323;29;20454;-73
2022/12/27 08:09:36;;;;;;;10.67;4.90;;;3.40;99.90;;;;;;4949531;29;20452;-72
2022/12/27 08:12:03;;;;;;;7.90;5.27;;;3.40;99.90;;;;;;4949452;29;20481;-72
2022/12/27 08:14:30;;;;;;;12.07;5.27;;;3.40;99.90;;;;;;4948916;29;20997;-72
2022/12/27 08:17:02;;;;;;;6.27;5.67;;;3.40;99.90;;;;;;4948604;29;20458;-72
2022/12/27 08:19:29;;;;;;;9.63;5.17;;;3.40;99.90;;;;;;4948834;29;20468;-72
2022/12/27 08:21:56;;;;;;;7.00;5.60;;;3.40;99.90;;;;;;4949059;29;20528;-72
2022/12/27 08:24:24;;;;;;;6.70;4.87;;;3.50;99.90;;;;;;4949239;29;20805;-73
2022/12/27 08:26:51;;;;;;;9.10;4.70;;;3.50;99.90;;;;;;4948129;29;20962;-72
2022/12/27 08:29:18;;;;;;;7.70;4.40;;;3.60;99.90;;;;;;4948511;29;20513;-72
2022/12/27 08:31:44;;;;;;;6.63;4.40;;;3.60;99.90;;;;;;4948659;29;20480;-72
2022/12/27 08:34:11;;;;;;;7.43;5.03;;;3.70;99.90;;;;;;4948680;29;20458;-72
2022/12/27 08:36:38;;;;;;;5.83;4.63;;;3.70;99.90;;;;;;4948215;29;20697;-72
2022/12/27 08:39:06;;;;;;;9.70;4.10;;;3.80;99.90;;;;;;4948805;29;20461;-72
2022/12/27 08:41:34;;;;;;;5.40;3.90;;;3.80;99.90;;;;;;4948795;29;20478;-72
2022/12/27 08:44:01;;;;;;;7.07;4.73;;;3.90;99.90;;;;;;4948977;29;20469;-72
2022/12/27 08:46:27;;;;;;;6.80;3.67;;;3.90;99.90;;;;;;4947892;29;20461;-72
2022/12/27 08:48:54;;;;;;;6.00;4.13;;;3.90;99.90;;;;;;4948608;29;20461;-72
2022/12/27 08:51:21;;;;;;;7.20;4.67;;;3.90;99.90;;;;;;4948682;29;20485;-72
2022/12/27 08:53:49;;;;;;;18.97;7.73;;;3.90;99.90;;;;;;4948136;29;20460;-71
2022/12/27 08:56:16;;;;;;;14.37;7.33;;;4.00;99.90;;;;;;4947575;29;20461;-72
2022/12/27 08:58:44;;;;;;;13.20;7.97;;;4.10;99.90;;;;;;4948495;29;20819;-72
2022/12/27 09:01:12;;;;;;;18.90;7.57;;;4.10;99.90;;;;;;4948067;29;20485;-72
2022/12/27 09:03:38;;;;;;;12.20;6.80;;;4.20;99.90;;;;;;4948313;29;20493;-72
2022/12/27 09:06:10;;;;;;;25.83;8.53;;;4.20;99.90;;;;;;4947613;28;20467;-72
2022/12/27 09:08:38;;;;;;;12.93;6.50;;;4.20;99.90;;;;;;4948023;29;20457;-72
2022/12/27 09:11:10;;;;;;;11.93;6.87;;;4.30;99.90;;;;;;4948005;29;20474;-72
2022/12/27 09:13:37;;;;;;;15.73;6.63;;;4.40;99.90;;;;;;4947702;29;21303;-72
2022/12/27 09:16:07;;;;;;;12.50;5.47;;;4.40;99.90;;;;;;4947240;29;21204;-72
2022/12/27 09:18:34;;;;;;;10.17;5.33;;;4.40;99.90;;;;;;4948137;29;20480;-72
2022/12/27 09:21:09;;;;;;;10.53;5.17;;;4.50;99.90;;;;;;4947987;29;20548;-72
2022/12/27 09:23:37;;;;;;;7.60;5.13;;;4.50;99.90;;;;;;4948182;29;20503;-72
2022/12/27 09:26:05;;;;;;;10.50;6.43;;;4.60;99.90;;;;;;4947471;29;20464;-72
2022/12/27 09:28:32;;;;;;;11.83;5.83;;;4.70;99.90;;;;;;4947268;29;20496;-72
2022/12/27 09:31:01;;;;;;;7.80;4.83;;;4.70;99.90;;;;;;4947938;29;20486;-72
2022/12/27 09:33:30;;;;;;;13.03;5.40;;;4.80;99.90;;;;;;4947767;29;20463;-72
2022/12/27 09:36:05;;;;;;;8.93;5.33;;;4.80;99.90;;;;;;4947332;29;20472;-72
2022/12/27 09:38:32;;;;;;;12.63;5.70;;;4.90;99.90;;;;;;4947308;29;20976;-72
2022/12/27 09:41:01;;;;;;;9.63;4.00;;;4.90;99.90;;;;;;4947758;29;20483;-72
2022/12/27 09:43:40;;;;;;;6.40;4.57;;;4.90;99.90;;;;;;4947281;29;20497;-72
2022/12/27 09:46:14;;;;;;;7.03;4.70;;;5.00;99.90;;;;;;4947024;29;20464;-62
2022/12/27 09:48:42;;;;;;;6.13;3.93;;;5.10;99.90;;;;;;4947957;29;20472;-61
2022/12/27 09:51:17;;;;;;;10.70;4.70;;;5.20;99.90;;;;;;4947197;29;20473;-61
2022/12/27 09:53:50;;;;;;;7.53;3.17;;;5.30;99.90;;;;;;4947770;29;20468;-61
2022/12/27 09:56:22;;;;;;;5.10;3.90;;;5.40;99.90;;;;;;4946847;29;20524;-61
2022/12/27 09:58:51;;;;;;;6.27;3.47;;;5.50;99.90;;;;;;4947792;29;20461;-72
2022/12/27 10:01:28;;;;;;;8.23;4.90;;;5.60;99.90;;;;;;4946357;29;20485;-72
2022/12/27 10:03:56;;;;;;;7.53;4.30;;;5.70;99.90;;;;;;4946117;29;20459;-72
2022/12/27 10:06:47;;;;;;;7.90;4.37;;;6.20;99.90;;;;;;4946113;29;20222;-72
2022/12/27 10:09:29;;;;;;;7.47;3.40;;;6.20;99.90;;;;;;4947061;29;20468;-72
2022/12/27 10:12:01;;;;;;;4.40;3.30;;;6.30;99.90;;;;;;4947296;29;20882;-72
2022/12/27 10:14:42;;;;;;;6.50;4.10;;;6.30;99.90;;;;;;4947404;29;20469;-72
2022/12/27 10:17:18;;;;;;;6.40;3.63;;;6.40;99.90;;;;;;4946456;29;21144;-72
2022/12/27 10:19:54;;;;;;;5.57;3.97;;;6.40;99.90;;;;;;4950808;28;20980;-72
2022/12/27 10:22:28;;;;;;;12.17;5.17;;;6.40;99.90;;;;;;4950993;29;21020;-72
2022/12/27 10:24:59;;;;;;;6.13;4.40;;;6.40;99.90;;;;;;4951275;29;20441;-72
2022/12/27 10:27:28;;;;;;;7.50;4.33;;;6.50;99.90;;;;;;4950503;29;20958;-72
2022/12/27 10:29:56;;;;;;;5.60;3.27;;;6.60;99.90;;;;;;4951111;29;20458;-72
2022/12/27 10:32:24;;;;;;;6.67;2.73;;;6.60;99.90;;;;;;4950799;29;20477;-72
2022/12/27 10:34:55;;;;;;;3.70;2.70;;;6.60;99.90;;;;;;4951158;29;20453;-72
2022/12/27 10:37:22;;;;;;;3.80;2.83;;;6.60;99.90;;;;;;4950393;29;20961;-72
2022/12/27 10:39:49;;;;;;;5.03;2.90;;;6.70;99.90;;;;;;4951079;29;20468;-72
2022/12/27 10:42:31;;;;;;;5.73;2.87;;;6.80;99.90;;;;;;4950705;29;20480;-72
2022/12/27 10:45:25;;;;;;;4.53;2.77;;;6.80;99.90;;;;;;4951386;29;20441;-72
2022/12/27 10:47:52;;;;;;;4.43;2.57;;;7.10;99.90;;;;;;4950217;29;20849;-72
2022/12/27 10:50:23;;;;;;;4.20;2.43;;;7.40;99.90;;;;;;4950623;29;20476;-72
2022/12/27 10:52:49;;;;;;;5.50;2.70;;;7.40;99.90;;;;;;4950869;29;20437;-72
2022/12/27 10:55:33;;;;;;;7.20;2.63;;;7.50;99.90;;;;;;4950816;29;20453;-72
2022/12/27 10:58:18;;;;;;;3.80;2.20;;;7.60;99.90;;;;;;4949983;29;20445;-72
2022/12/27 11:00:53;;;;;;;4.73;2.70;;;7.60;99.90;;;;;;4949614;29;20484;-72
2022/12/27 11:03:20;;;;;;;4.27;2.27;;;7.80;99.90;;;;;;4950610;29;20523;-72
2022/12/27 11:05:59;;;;;;;2.57;2.30;;;7.70;99.90;;;;;;4950663;29;20464;-72
2022/12/27 11:08:32;;;;;;;2.80;2.17;;;7.70;99.90;;;;;;4950498;29;20457;-72
2022/12/27 11:11:17;;;;;;;4.20;2.30;;;7.70;99.90;;;;;;4950713;29;20481;-72
2022/12/27 11:13:44;;;;;;;4.67;2.13;;;7.80;99.90;;;;;;4950325;29;20453;-72
2022/12/27 11:16:18;;;;;;;4.30;1.90;;;7.80;99.90;;;;;;4949900;29;20461;-72
2022/12/27 11:18:48;;;;;;;3.77;1.80;;;7.90;99.90;;;;;;4950173;29;21263;-72
2022/12/27 11:21:18;;;;;;;4.73;1.73;;;8.00;99.90;;;;;;4950163;29;20838;-72
2022/12/27 11:23:48;;;;;;;5.67;2.70;;;8.40;99.90;;;;;;4950311;29;20516;-72
2022/12/27 11:26:21;;;;;;;7.37;2.23;;;8.50;99.90;;;;;;4949486;29;20549;-72
2022/12/27 11:28:51;;;;;;;5.37;1.50;;;8.50;99.90;;;;;;4950126;29;20958;-72
2022/12/27 11:31:27;;;;;;;10.83;2.40;;;8.50;99.90;;;;;;4948917;28;20480;-73
2022/12/27 11:33:56;;;;;;;6.37;2.30;;;8.40;99.90;;;;;;4950418;29;20441;-72
2022/12/27 11:36:27;;;;;;;4.13;1.90;;;8.70;99.90;;;;;;4949237;29;20453;-73
2022/12/27 11:38:55;;;;;;;3.23;1.97;;;9.00;99.90;;;;;;4950176;29;20446;-72
2022/12/27 11:41:28;;;;;;;2.83;1.77;;;9.20;99.90;;;;;;4949515;29;20488;-72
2022/12/27 11:44:00;;;;;;;2.97;1.80;;;9.20;99.90;;;;;;4950007;29;20503;-72
2022/12/27 11:46:30;;;;;;;2.20;1.57;;;9.20;99.90;;;;;;4949197;29;20455;-73
2022/12/27 11:48:58;;;;;;;2.60;1.43;;;9.20;99.90;;;;;;4949565;29;20445;-73
2022/12/27 11:51:46;;;;;;;2.33;1.50;;;9.10;99.90;;;;;;4949288;29;20990;-75
2022/12/27 11:54:39;;;;;;;7.67;2.33;;;9.00;99.90;;;;;;4950093;29;20449;-74
2022/12/27 11:57:17;;;;;;;3.53;1.80;;;9.00;99.90;;;;;;4949354;29;20452;-72
2022/12/27 11:59:54;;;;;;;3.37;1.97;;;8.90;99.90;;;;;;4949697;29;20445;-73
2022/12/27 12:02:36;;;;;;;2.57;1.90;;;8.70;99.90;;;;;;4948945;29;21011;-72
2022/12/27 12:05:45;;;;;;;4.20;2.00;;;8.50;99.90;;;;;;4949488;29;20480;-72
2022/12/27 12:08:36;;;;;;;5.60;2.30;;;8.40;99.90;;;;;;4948972;29;20461;-73
2022/12/27 12:11:13;;;;;;;3.23;1.67;;;8.40;99.90;;;;;;4949355;29;20505;-74
2022/12/27 12:14:12;;;;;;;2.47;1.63;;;8.40;99.90;;;;;;4949698;29;20438;-74
2022/12/27 12:17:16;;;;;;;6.80;2.30;;;8.40;99.90;;;;;;4948361;29;20912;-74
2022/12/27 12:20:03;;;;;;;5.13;2.20;;;8.30;99.90;;;;;;4949329;29;20451;-73
2022/12/27 12:22:43;;;;;;;8.40;2.20;;;8.30;99.90;;;;;;4949064;29;20833;-73
2022/12/27 12:25:39;;;;;;;5.67;2.13;;;8.40;99.90;;;;;;4949052;29;20962;-73
2022/12/27 12:28:49;;;;;;;9.10;1.80;;;8.40;99.90;;;;;;4948149;29;20446;-73
2022/12/27 12:31:31;;;;;;;9.87;2.93;;;8.40;99.90;;;;;;4949308;29;20568;-73
2022/12/27 12:34:13;;;;;;;4.73;2.30;;;8.60;99.90;;;;;;4948994;29;20461;-73
2022/12/27 12:37:01;;;;;;;2.67;1.83;;;8.70;99.90;;;;;;4948430;29;20468;-73
2022/12/27 12:39:44;;;;;;;6.33;2.50;;;8.70;99.90;;;;;;4948773;29;20843;-73
2022/12/27 12:42:22;;;;;;;3.87;2.50;;;8.70;99.90;;;;;;4947963;28;20485;-73
2022/12/27 12:45:15;;;;;;;3.60;2.13;;;8.60;99.90;;;;;;4948950;29;20492;-74
2022/12/27 12:48:04;;;;;;;4.40;1.90;;;8.60;99.90;;;;;;4945296;29;20473;-73
2022/12/27 12:50:47;;;;;;;4.50;2.00;;;8.60;99.90;;;;;;4948569;29;20468;-73
2022/12/27 12:53:30;;;;;;;5.87;2.10;;;8.60;99.90;;;;;;4948907;29;20434;-73
2022/12/27 12:56:12;;;;;;;3.00;2.10;;;8.50;99.90;;;;;;4948093;29;20463;-74
2022/12/27 12:58:53;;;;;;;2.80;2.17;;;8.60;99.90;;;;;;4948755;29;20533;-73
2022/12/27 13:01:36;;;;;;;3.90;2.00;;;8.60;99.90;;;;;;4948319;29;20491;-74
2022/12/27 13:04:34;;;;;;;2.97;2.00;;;8.60;99.90;;;;;;4948346;29;20497;-73
2022/12/27 13:07:30;;;;;;;3.00;1.93;;;8.60;99.90;;;;;;4947505;29;20469;-60
2022/12/27 13:10:28;;;;;;;3.27;1.63;;;8.60;99.90;;;;;;4948301;29;20457;-76
2022/12/27 13:13:03;;;;;;;3.50;2.10;;;8.60;99.90;;;;;;4948317;29;20445;-76
2022/12/27 13:15:46;;;;;;;5.80;2.40;;;8.60;99.90;;;;;;4948403;29;20550;-74
2022/12/27 13:18:23;;;;;;;2.63;1.90;;;8.60;99.90;;;;;;4946889;29;20449;-75
2022/12/27 13:20:59;;;;;;;3.00;2.50;;;8.60;99.90;;;;;;4945697;29;20468;-74
2022/12/27 13:23:38;;;;;;;5.43;2.53;;;8.60;99.90;;;;;;4947430;29;20493;-75
2022/12/27 13:26:13;;;;;;;5.53;2.37;;;8.50;99.90;;;;;;4946823;28;20465;-74
2022/12/27 13:28:52;;;;;;;2.97;2.53;;;8.50;99.90;;;;;;4949513;28;20440;-74
2022/12/27 13:31:33;;;;;;;4.70;2.20;;;8.40;99.90;;;;;;4947166;29;20481;-76
2022/12/27 13:34:13;;;;;;;4.07;2.43;;;8.40;99.90;;;;;;4952559;28;20919;-74
2022/12/27 13:36:56;;;;;;;5.10;2.70;;;8.40;99.90;;;;;;4944620;29;20484;-75
2022/12/27 13:39:38;;;;;;;4.90;2.60;;;8.40;99.90;;;;;;4948121;29;20444;-75
2022/12/27 13:42:29;;;;;;;8.50;2.40;;;8.30;99.90;;;;;;4947633;29;20496;-75
2022/12/27 13:45:07;;;;;;;7.00;3.10;;;8.40;99.90;;;;;;4947938;29;20500;-74
2022/12/27 13:47:50;;;;;;;7.80;3.10;;;8.40;99.90;;;;;;4947172;29;20446;-75
2022/12/27 13:50:43;;;;;;;8.03;3.00;;;8.40;99.90;;;;;;4947714;29;20833;-74
2022/12/27 13:53:33;;;;;;;6.43;2.47;;;8.30;99.90;;;;;;4919889;28;20938;-77
2022/12/27 13:56:09;;;;;;;4.70;2.50;;;8.30;99.90;;;;;;4946917;29;20469;-75
2022/12/27 13:59:01;;;;;;;5.40;3.17;;;8.20;99.90;;;;;;4947623;29;20465;-74
2022/12/27 14:02:00;;;;;;;6.13;2.90;;;8.30;99.90;;;;;;4947477;29;20485;-74
2022/12/27 14:04:52;;;;;;;2.10;1.67;;;8.30;99.90;;;;;;4947525;29;21021;-74
2022/12/27 14:07:42;;;;;;;8.77;3.13;;;8.20;99.90;;;;;;4947469;29;20451;-74
2022/12/27 14:10:21;;;;;;;3.70;2.03;;;8.20;99.90;;;;;;4946226;29;20463;-74
2022/12/27 14:12:55;;;;;;;5.77;2.40;;;8.20;99.90;;;;;;4946933;29;20540;-74
2022/12/27 14:15:27;;;;;;;3.93;2.87;;;8.20;99.90;;;;;;4946370;29;20453;-75
2022/12/27 14:18:09;;;;;;;8.00;2.50;;;8.20;99.90;;;;;;4945514;29;20956;-74
2022/12/27 14:20:55;;;;;;;7.10;2.87;;;8.20;99.90;;;;;;4947716;29;20472;-75
2022/12/27 14:23:52;;;;;;;8.93;2.73;;;8.40;99.90;;;;;;4947926;29;20457;-74
2022/12/27 14:26:52;;;;;;;6.20;2.30;;;8.30;99.90;;;;;;4946604;29;20441;-74
2022/12/27 14:29:40;;;;;;;3.20;2.00;;;8.30;99.90;;;;;;4922268;29;20548;-75
2022/12/27 14:32:52;;;;;;;9.37;2.83;;;8.30;99.90;;;;;;4947415;29;20483;-76
2022/12/27 14:35:45;;;;;;;4.33;2.40;;;8.30;99.90;;;;;;4888458;29;20596;-78
2022/12/27 14:38:35;;;;;;;4.93;2.17;;;8.30;99.90;;;;;;4949097;29;20453;-78
2022/12/27 14:41:25;;;;;;;2.17;1.90;;;8.30;99.90;;;;;;4948059;29;21053;-82
2022/12/27 14:44:31;;;;;;;2.93;2.10;;;8.30;99.90;;;;;;4946843;29;20497;-75
2022/12/27 14:47:37;;;;;;;11.60;2.23;;;8.20;99.90;;;;;;4916324;29;20540;-79
2022/12/27 14:50:37;;;;;;;5.47;2.40;;;8.10;99.90;;;;;;4947704;29;20500;-75
2022/12/27 14:53:39;;;;;;;5.90;2.67;;;8.10;99.90;;;;;;4948033;29;20766;-78
2022/12/27 14:56:20;;;;;;;6.30;2.60;;;8.10;99.90;;;;;;4946428;29;20461;-74
2022/12/27 14:58:56;;;;;;;5.53;2.67;;;8.10;99.90;;;;;;4948040;29;20952;-80
2022/12/27 15:01:39;;;;;;;5.50;2.37;;;8.00;99.90;;;;;;4947481;29;20492;-77
2022/12/27 15:04:31;;;;;;;4.20;2.70;;;8.00;99.90;;;;;;4947044;28;20501;-76
2022/12/27 15:07:21;;;;;;;5.37;3.00;;;8.10;99.90;;;;;;4951112;29;20461;-77
2022/12/27 15:09:59;;;;;;;4.80;2.67;;;8.20;99.90;;;;;;4953787;29;20465;-78
2022/12/27 15:12:39;;;;;;;6.40;3.80;;;8.20;99.90;;;;;;4950519;29;20484;-74
2022/12/27 15:15:27;;;;;;;5.87;3.07;;;8.30;99.90;;;;;;4949062;29;20460;-73
2022/12/27 15:18:22;;;;;;;10.03;2.80;;;8.30;99.90;;;;;;4949525;29;20830;-72
2022/12/27 15:21:18;;;;;;;5.33;2.23;;;8.30;99.90;;;;;;4944140;29;20527;-73
2022/12/27 15:23:52;;;;;;;6.70;3.50;;;8.20;99.90;;;;;;4949009;29;20457;-73
2022/12/27 15:26:32;;;;;;;5.90;2.50;;;8.20;99.90;;;;;;4949354;29;20460;-72
2022/12/27 15:29:26;;;;;;;3.07;2.30;;;8.20;99.90;;;;;;4948963;29;20453;-74
2022/12/27 15:32:02;;;;;;;8.70;2.30;;;8.20;99.90;;;;;;4954870;28;20477;-74
2022/12/27 15:35:02;;;;;;;5.37;2.60;;;8.20;99.90;;;;;;4949226;28;20469;-74
2022/12/27 15:37:52;;;;;;;4.60;2.80;;;8.20;99.90;;;;;;4949317;29;20434;-73
2022/12/27 15:40:38;;;;;;;5.30;2.90;;;8.20;99.90;;;;;;4949994;29;20453;-72
2022/12/27 15:43:14;;;;;;;3.70;2.77;;;8.30;99.90;;;;;;4937578;29;21037;-75
2022/12/27 15:45:55;;;;;;;9.73;5.28;;;8.30;99.90;;;;;;4954428;29;20463;-73
2022/12/27 15:48:51;;;;;;;13.93;6.50;;;8.50;99.90;;;;;;4953093;29;20681;-73
2022/12/27 15:51:28;;;;;;;7.30;4.57;;;8.50;99.90;;;;;;4951890;29;20481;-73
2022/12/27 15:54:24;;;;;;;6.80;4.40;;;8.60;99.90;;;;;;4950495;29;20445;-73
2022/12/27 15:57:16;;;;;;;8.20;3.90;;;8.40;99.90;;;;;;4948799;29;20468;-74
2022/12/27 15:59:47;;;;;;;7.30;4.90;;;8.40;99.90;;;;;;4949690;29;20449;-74
2022/12/27 16:02:35;;;;;;;7.53;4.53;;;8.30;99.90;;;;;;4947986;29;20521;-74
2022/12/27 16:05:10;;;;;;;5.37;4.13;;;8.30;99.90;;;;;;4948308;29;20501;-75
2022/12/27 16:07:41;;;;;;;17.10;6.20;;;8.30;99.90;;;;;;4948714;29;20441;-75
2022/12/27 16:10:28;;;;;;;12.20;6.17;;;8.20;99.90;;;;;;4949309;29;20461;-75
2022/12/27 16:12:58;;;;;;;6.50;4.00;;;8.20;99.90;;;;;;4947842;29;20465;-75
2022/12/27 16:15:51;;;;;;;8.03;4.40;;;8.20;99.90;;;;;;4949325;29;20454;-75
2022/12/27 16:18:59;;;;;;;9.03;3.80;;;8.00;99.90;;;;;;4948743;29;20445;-75
2022/12/27 16:21:35;;;;;;;12.63;4.53;;;8.00;99.90;;;;;;4930008;29;20474;-75
2022/12/27 16:24:06;;;;;;;10.67;4.83;;;7.90;99.90;;;;;;4930357;29;20435;-75
2022/12/27 16:26:34;;;;;;;9.67;4.70;;;7.90;99.90;;;;;;4929461;29;20461;-75
2022/12/27 16:29:05;;;;;;;10.13;4.80;;;7.80;99.90;;;;;;4930023;29;20830;-75
2022/12/27 16:31:35;;;;;;;10.40;4.90;;;7.80;99.90;;;;;;4930107;29;20489;-75
2022/12/27 16:34:12;;;;;;;6.93;4.13;;;7.70;99.90;;;;;;4930032;29;20450;-75
2022/12/27 16:36:45;;;;;;;7.70;4.17;;;7.60;99.90;;;;;;4929066;29;20466;-75
2022/12/27 16:39:31;;;;;;;9.60;4.23;;;7.60;99.90;;;;;;4929495;29;20454;-75
2022/12/27 16:42:03;;;;;;;7.23;4.10;;;7.60;99.90;;;;;;4929891;29;20494;-75
2022/12/27 16:44:52;;;;;;;4.50;3.70;;;7.50;99.90;;;;;;4929056;29;20965;-75
2022/12/27 16:47:40;;;;;;;11.17;4.47;;;7.50;99.90;;;;;;4928382;29;20552;-75
2022/12/27 16:50:38;;;;;;;9.93;5.10;;;7.50;99.90;;;;;;4929155;29;20442;-75
2022/12/27 16:53:14;;;;;;;6.43;4.13;;;7.40;99.90;;;;;;4929354;29;20816;-75
2022/12/27 16:56:14;;;;;;;8.00;4.30;;;7.40;99.90;;;;;;4929432;29;20912;-75
2022/12/27 16:58:41;;;;;;;9.03;4.97;;;7.40;99.90;;;;;;4887698;29;20474;-75
2022/12/27 17:01:50;;;;;;;9.93;5.00;;;7.40;99.90;;;;;;4928805;29;21062;-75
2022/12/27 17:04:49;;;;;;;12.77;6.00;;;7.30;99.90;;;;;;4923228;29;20572;-75
2022/12/27 17:07:41;;;;;;;11.53;4.87;;;7.40;99.90;;;;;;4945696;29;20946;-75
2022/12/27 17:10:35;;;;;;;8.10;5.00;;;7.30;99.90;;;;;;4948193;29;20461;-75
2022/12/27 17:13:11;;;;;;;9.57;5.13;;;7.30;99.90;;;;;;4947798;29;20464;-75
2022/12/27 17:15:47;;;;;;;10.43;5.73;;;7.20;99.90;;;;;;4948451;29;20826;-75
2022/12/27 17:18:26;;;;;;;10.97;6.23;;;7.10;99.90;;;;;;4946529;29;20449;-75
2022/12/27 17:21:01;;;;;;;12.33;7.20;;;7.10;99.90;;;;;;4948220;29;20515;-75
2022/12/27 17:23:29;;;;;;;16.07;6.23;;;7.10;99.90;;;;;;4947123;29;21277;-75
2022/12/27 17:26:09;;;;;;;7.40;5.63;;;7.10;99.90;;;;;;4945916;29;20497;-75
2022/12/27 17:28:44;;;;;;;9.53;5.93;;;7.10;99.90;;;;;;4947228;28;20437;-75
2022/12/27 17:31:19;;;;;;;8.07;5.50;;;7.10;99.90;;;;;;4948079;29;20469;-75
2022/12/27 17:33:58;;;;;;;8.77;5.57;;;7.10;99.90;;;;;;4947334;29;20463;-75
2022/12/27 17:36:35;;;;;;;7.33;4.87;;;7.10;99.90;;;;;;4946797;29;20453;-74
2022/12/27 17:39:17;;;;;;;13.10;5.23;;;7.00;99.90;;;;;;4947058;29;20469;-75
2022/12/27 17:45:01;;;;;;;10.20;5.40;;;6.90;99.90;;;;;;4947297;29;20453;-75
2022/12/27 17:47:52;;;;;;;11.03;5.67;;;6.90;99.90;;;;;;4946675;29;20556;-74
2022/12/27 17:50:25;;;;;;;9.73;5.50;;;6.80;99.90;;;;;;4947187;29;20453;-74
2022/12/27 17:59:09;;;;;;;11.43;6.60;;;6.60;99.90;;;;;;4947849;29;20960;-73
2022/12/27 18:01:50;;;;;;;12.80;6.00;;;6.50;99.90;;;;;;4947677;29;20493;-73
2022/12/27 18:04:23;;;;;;;8.83;6.67;;;6.40;99.90;;;;;;4947117;29;20961;-73
2022/12/27 18:06:53;;;;;;;16.37;7.70;;;6.40;99.90;;;;;;4945489;29;20937;-73
2022/12/27 18:09:30;;;;;;;14.00;7.03;;;6.30;99.90;;;;;;4947428;29;20528;-73
2022/12/27 18:11:58;;;;;;;9.27;5.90;;;6.30;99.90;;;;;;4947045;29;20480;-73
2022/12/27 18:14:28;;;;;;;16.00;7.53;;;6.30;99.90;;;;;;4947032;29;20639;-73
2022/12/27 18:16:57;;;;;;;14.83;8.33;;;6.20;99.90;;;;;;4946174;29;20464;-73
2022/12/27 18:19:29;;;;;;;15.10;8.97;;;6.20;99.90;;;;;;4946447;29;20453;-73
2022/12/27 18:21:58;;;;;;;14.80;8.60;;;6.10;99.90;;;;;;4947271;29;20731;-73
2022/12/27 18:24:27;;;;;;;20.17;10.50;;;6.10;99.90;;;;;;4946824;29;20465;-73
2022/12/27 18:27:02;;;;;;;20.87;10.53;;;6.00;99.90;;;;;;4946506;29;20903;-73
2022/12/27 18:29:30;;;;;;;19.23;10.37;;;6.00;99.90;;;;;;4947059;29;20809;-74
2022/12/27 18:32:02;;;;;;;24.97;10.07;;;6.00;99.90;;;;;;4946700;29;21020;-74
2022/12/27 18:34:35;;;;;;;20.37;10.10;;;5.90;99.90;;;;;;4947610;29;20465;-74
2022/12/27 18:37:05;;;;;;;16.43;9.60;;;5.90;99.90;;;;;;4946170;29;20971;-74
2022/12/27 18:39:36;;;;;;;16.23;9.83;;;5.90;99.90;;;;;;4948087;28;20465;-73
2022/12/27 18:42:06;;;;;;;26.37;13.30;;;5.70;99.90;;;;;;4950953;29;20552;-73
2022/12/27 18:44:47;;;;;;;22.10;13.30;;;5.50;99.90;;;;;;4950263;29;20862;-73
2022/12/27 18:47:19;;;;;;;24.77;14.73;;;5.50;99.90;;;;;;4950102;29;20457;-74
2022/12/27 18:49:52;;;;;;;28.00;16.17;;;5.40;99.90;;;;;;4950526;29;20461;-73
2022/12/27 18:52:24;;;;;;;41.40;28.80;;;5.30;99.90;;;;;;4949359;29;20823;-73
2022/12/27 18:54:52;;;;;;;35.40;27.57;;;5.30;99.90;;;;;;4950164;29;20453;-74
2022/12/27 18:57:32;;;;;;;33.00;23.43;;;5.30;99.90;;;;;;4949875;29;20465;-73
2022/12/27 19:00:12;;;;;;;33.13;20.63;;;5.20;99.90;;;;;;4948953;29;20496;-74
2022/12/27 19:02:39;;;;;;;25.60;20.50;;;5.20;99.90;;;;;;4949079;29;20517;-73